X  Close Metar Aviation Weather Data     KDNN Dalton Municipal Airport
Temperature
6°C Temperature
2°C Dewpoint
76% Humidity



Wind
3 MPH
5 KM/H
1 M/S
3 KTS



200°
SSW
Current Conditions

Clear Clear
Pressure 1019.64 (hPa) - 30.11 (inHg)
Visibility 9 (mile) - 14.5 (km)
Airport
Airport-code KDNN

Location: Dalton Municipal Airport
Distance: 34 (mi)

Metar:
KDNN 261315Z AUTO 20003KT 9SM CLR 06/02 A3011 RMK AO2 T00630023

Time: 02-26-2024 08:15 EST